sensor_id;sensor_type;location;lat;lon;timestamp;pressure;altitude;pressure_sealevel;temperature;humidity
43770;BME280;6597;52.218;9.882;2024-03-02T00:00:29;99610.50;;;8.61;87.71
43770;BME280;6597;52.218;9.882;2024-03-02T00:02:57;99612.31;;;8.59;87.91
43770;BME280;6597;52.218;9.882;2024-03-02T00:05:24;99610.50;;;8.61;87.27
43770;BME280;6597;52.218;9.882;2024-03-02T00:07:54;99606.31;;;8.57;87.75
43770;BME280;6597;52.218;9.882;2024-03-02T00:10:22;99612.47;;;8.56;87.95
43770;BME280;6597;52.218;9.882;2024-03-02T00:12:50;99613.53;;;8.52;87.90
43770;BME280;6597;52.218;9.882;2024-03-02T00:15:39;99610.91;;;8.52;87.94
43770;BME280;6597;52.218;9.882;2024-03-02T00:18:08;99607.38;;;8.53;88.23
43770;BME280;6597;52.218;9.882;2024-03-02T00:20:36;99610.06;;;8.51;88.03
43770;BME280;6597;52.218;9.882;2024-03-02T00:23:04;99605.75;;;8.50;87.67
43770;BME280;6597;52.218;9.882;2024-03-02T00:25:37;99603.00;;;8.53;87.63
43770;BME280;6597;52.218;9.882;2024-03-02T00:28:05;99613.47;;;8.53;87.51
43770;BME280;6597;52.218;9.882;2024-03-02T00:30:55;99601.28;;;8.52;87.79
43770;BME280;6597;52.218;9.882;2024-03-02T00:33:26;99603.06;;;8.52;87.06
43770;BME280;6597;52.218;9.882;2024-03-02T00:35:53;99610.84;;;8.53;87.90
43770;BME280;6597;52.218;9.882;2024-03-02T00:38:20;99608.94;;;8.57;86.84
43770;BME280;6597;52.218;9.882;2024-03-02T00:40:47;99612.31;;;8.59;86.75
43770;BME280;6597;52.218;9.882;2024-03-02T00:43:38;99604.63;;;8.56;87.03
43770;BME280;6597;52.218;9.882;2024-03-02T00:46:06;99599.25;;;8.59;86.77
43770;BME280;6597;52.218;9.882;2024-03-02T00:48:34;99602.72;;;8.59;87.07
43770;BME280;6597;52.218;9.882;2024-03-02T00:51:01;99598.34;;;8.60;87.39
43770;BME280;6597;52.218;9.882;2024-03-02T00:53:29;99597.56;;;8.58;87.41
43770;BME280;6597;52.218;9.882;2024-03-02T00:55:57;99607.09;;;8.59;87.54
43770;BME280;6597;52.218;9.882;2024-03-02T00:58:24;99615.00;;;8.57;87.31
43770;BME280;6597;52.218;9.882;2024-03-02T01:00:51;99613.31;;;8.56;87.65
43770;BME280;6597;52.218;9.882;2024-03-02T01:03:17;99613.09;;;8.61;87.43
43770;BME280;6597;52.218;9.882;2024-03-02T01:05:45;99614.03;;;8.60;87.49
43770;BME280;6597;52.218;9.882;2024-03-02T01:08:12;99615.88;;;8.58;87.63
43770;BME280;6597;52.218;9.882;2024-03-02T01:10:39;99623.84;;;8.55;87.60
43770;BME280;6597;52.218;9.882;2024-03-02T01:13:05;99618.63;;;8.55;88.74
43770;BME280;6597;52.218;9.882;2024-03-02T01:15:33;99622.28;;;8.51;89.03
43770;BME280;6597;52.218;9.882;2024-03-02T01:17:59;99623.28;;;8.48;88.75
43770;BME280;6597;52.218;9.882;2024-03-02T01:20:26;99628.31;;;8.53;88.83
43770;BME280;6597;52.218;9.882;2024-03-02T01:22:54;99632.63;;;8.54;88.47
43770;BME280;6597;52.218;9.882;2024-03-02T01:25:21;99630.00;;;8.54;88.14
43770;BME280;6597;52.218;9.882;2024-03-02T01:27:48;99633.66;;;8.50;88.67
43770;BME280;6597;52.218;9.882;2024-03-02T01:30:15;99631.13;;;8.48;88.82
43770;BME280;6597;52.218;9.882;2024-03-02T01:32:41;99625.97;;;8.47;88.43
43770;BME280;6597;52.218;9.882;2024-03-02T01:35:07;99629.44;;;8.47;89.26
43770;BME280;6597;52.218;9.882;2024-03-02T01:37:34;99619.88;;;8.46;89.24
43770;BME280;6597;52.218;9.882;2024-03-02T01:40:02;99624.44;;;8.41;89.43
43770;BME280;6597;52.218;9.882;2024-03-02T01:42:33;99630.03;;;8.33;89.52
43770;BME280;6597;52.218;9.882;2024-03-02T01:45:00;99625.66;;;8.32;89.72
43770;BME280;6597;52.218;9.882;2024-03-02T01:47:27;99626.34;;;8.37;88.96
43770;BME280;6597;52.218;9.882;2024-03-02T01:49:54;99626.13;;;8.42;88.94
43770;BME280;6597;52.218;9.882;2024-03-02T01:52:20;99619.06;;;8.44;88.79
43770;BME280;6597;52.218;9.882;2024-03-02T01:54:47;99615.75;;;8.40;88.14
43770;BME280;6597;52.218;9.882;2024-03-02T01:57:14;99611.31;;;8.42;87.92
43770;BME280;6597;52.218;9.882;2024-03-02T01:59:41;99621.66;;;8.46;87.53
43770;BME280;6597;52.218;9.882;2024-03-02T02:02:08;99618.16;;;8.45;88.30
43770;BME280;6597;52.218;9.882;2024-03-02T02:04:35;99610.38;;;8.43;88.10
43770;BME280;6597;52.218;9.882;2024-03-02T02:07:01;99612.06;;;8.45;87.85
43770;BME280;6597;52.218;9.882;2024-03-02T02:09:28;99604.31;;;8.43;88.20
43770;BME280;6597;52.218;9.882;2024-03-02T02:11:54;99612.22;;;8.41;87.48
43770;BME280;6597;52.218;9.882;2024-03-02T02:14:22;99607.25;;;8.35;88.53
43770;BME280;6597;52.218;9.882;2024-03-02T02:16:49;99600.97;;;8.39;88.30
43770;BME280;6597;52.218;9.882;2024-03-02T02:19:16;99601.03;;;8.38;88.76
43770;BME280;6597;52.218;9.882;2024-03-02T02:21:44;99591.56;;;8.35;88.51
43770;BME280;6597;52.218;9.882;2024-03-02T02:24:11;99587.25;;;8.34;88.26
43770;BME280;6597;52.218;9.882;2024-03-02T02:26:38;99590.06;;;8.30;89.13
43770;BME280;6597;52.218;9.882;2024-03-02T02:29:05;99593.50;;;8.30;88.22
43770;BME280;6597;52.218;9.882;2024-03-02T02:31:36;99589.28;;;8.28;88.89
43770;BME280;6597;52.218;9.882;2024-03-02T02:34:03;99593.59;;;8.29;88.53
43770;BME280;6597;52.218;9.882;2024-03-02T02:36:30;99587.50;;;8.28;88.44
43770;BME280;6597;52.218;9.882;2024-03-02T02:39:01;99589.47;;;8.23;89.61
43770;BME280;6597;52.218;9.882;2024-03-02T02:41:29;99592.09;;;8.23;88.77
43770;BME280;6597;52.218;9.882;2024-03-02T02:43:56;99590.25;;;8.25;89.43
43770;BME280;6597;52.218;9.882;2024-03-02T02:46:22;99591.38;;;8.20;89.14
43770;BME280;6597;52.218;9.882;2024-03-02T02:48:49;99594.00;;;8.20;89.58
43770;BME280;6597;52.218;9.882;2024-03-02T02:51:17;99591.38;;;8.20;89.38
43770;BME280;6597;52.218;9.882;2024-03-02T02:53:43;99588.91;;;8.17;89.27
43770;BME280;6597;52.218;9.882;2024-03-02T02:56:11;99591.59;;;8.15;90.07
43770;BME280;6597;52.218;9.882;2024-03-02T02:58:39;99582.06;;;8.14;89.94
43770;BME280;6597;52.218;9.882;2024-03-02T03:01:06;99582.16;;;8.11;90.06
43770;BME280;6597;52.218;9.882;2024-03-02T03:03:33;99575.16;;;8.11;89.53
43770;BME280;6597;52.218;9.882;2024-03-02T03:05:59;99576.00;;;8.12;89.51
43770;BME280;6597;52.218;9.882;2024-03-02T03:08:26;99573.41;;;8.12;89.70
43770;BME280;6597;52.218;9.882;2024-03-02T03:10:52;99572.75;;;8.07;89.81
43770;BME280;6597;52.218;9.882;2024-03-02T03:13:20;99563.28;;;8.04;90.37
43770;BME280;6597;52.218;9.882;2024-03-02T03:15:47;99567.53;;;8.07;90.40
43770;BME280;6597;52.218;9.882;2024-03-02T03:18:13;99573.03;;;8.01;90.32
43770;BME280;6597;52.218;9.882;2024-03-02T03:20:40;99568.00;;;7.96;90.58
43770;BME280;6597;52.218;9.882;2024-03-02T03:23:06;99565.59;;;7.92;90.82
43770;BME280;6597;52.218;9.882;2024-03-02T03:25:34;99565.88;;;7.86;91.28
43770;BME280;6597;52.218;9.882;2024-03-02T03:28:00;99566.91;;;7.82;90.81
43770;BME280;6597;52.218;9.882;2024-03-02T03:30:29;99567.09;;;7.77;91.12
43770;BME280;6597;52.218;9.882;2024-03-02T03:32:56;99562.97;;;7.71;91.84
43770;BME280;6597;52.218;9.882;2024-03-02T03:35:22;99567.34;;;7.71;91.42
43770;BME280;6597;52.218;9.882;2024-03-02T03:37:49;99569.88;;;7.72;91.20
43770;BME280;6597;52.218;9.882;2024-03-02T03:40:15;99571.84;;;7.67;91.62
43770;BME280;6597;52.218;9.882;2024-03-02T03:42:43;99566.81;;;7.63;91.38
43770;BME280;6597;52.218;9.882;2024-03-02T03:45:09;99563.50;;;7.59;91.15
43770;BME280;6597;52.218;9.882;2024-03-02T03:47:36;99570.41;;;7.60;90.94
43770;BME280;6597;52.218;9.882;2024-03-02T03:50:03;99563.50;;;7.59;91.28
43770;BME280;6597;52.218;9.882;2024-03-02T03:52:32;99556.72;;;7.55;91.01
43770;BME280;6597;52.218;9.882;2024-03-02T03:54:59;99560.53;;;7.46;91.16
43770;BME280;6597;52.218;9.882;2024-03-02T03:57:25;99563.41;;;7.40;91.71
43770;BME280;6597;52.218;9.882;2024-03-02T03:59:52;99561.03;;;7.34;92.06
43770;BME280;6597;52.218;9.882;2024-03-02T04:02:18;99568.22;;;7.29;92.39
43770;BME280;6597;52.218;9.882;2024-03-02T04:04:46;99555.59;;;7.18;93.22
43770;BME280;6597;52.218;9.882;2024-03-02T04:07:13;99556.63;;;7.14;93.42
43770;BME280;6597;52.218;9.882;2024-03-02T04:09:40;99555.75;;;7.14;93.49
43770;BME280;6597;52.218;9.882;2024-03-02T04:12:06;99554.13;;;7.11;93.79
43770;BME280;6597;52.218;9.882;2024-03-02T04:14:33;99562.09;;;7.08;94.00
43770;BME280;6597;52.218;9.882;2024-03-02T04:16:59;99561.41;;;7.03;94.13
43770;BME280;6597;52.218;9.882;2024-03-02T04:19:26;99561.41;;;7.03;94.07
43770;BME280;6597;52.218;9.882;2024-03-02T04:21:54;99559.84;;;6.99;94.57
43770;BME280;6597;52.218;9.882;2024-03-02T04:24:20;99559.13;;;6.96;94.87
43770;BME280;6597;52.218;9.882;2024-03-02T04:26:47;99560.88;;;6.95;95.03
43770;BME280;6597;52.218;9.882;2024-03-02T04:29:13;99562.69;;;6.93;95.23
43770;BME280;6597;52.218;9.882;2024-03-02T04:31:40;99562.69;;;6.93;95.88
43770;BME280;6597;52.218;9.882;2024-03-02T04:34:06;99567.97;;;6.92;95.72
43770;BME280;6597;52.218;9.882;2024-03-02T04:36:33;99558.47;;;6.91;95.79
43770;BME280;6597;52.218;9.882;2024-03-02T04:39:01;99560.63;;;6.79;96.16
43770;BME280;6597;52.218;9.882;2024-03-02T04:41:27;99561.69;;;6.74;96.63
43770;BME280;6597;52.218;9.882;2024-03-02T04:43:54;99566.38;;;6.66;97.22
43770;BME280;6597;52.218;9.882;2024-03-02T04:46:21;99567.41;;;6.62;97.46
43770;BME280;6597;52.218;9.882;2024-03-02T04:48:47;99563.94;;;6.61;98.31
43770;BME280;6597;52.218;9.882;2024-03-02T04:51:20;99567.69;;;6.54;98.50
43770;BME280;6597;52.218;9.882;2024-03-02T04:53:46;99566.06;;;6.51;99.41
43770;BME280;6597;52.218;9.882;2024-03-02T04:56:14;99561.75;;;6.50;100.00
43770;BME280;6597;52.218;9.882;2024-03-02T04:58:55;99565.28;;;6.48;100.00
43770;BME280;6597;52.218;9.882;2024-03-02T05:01:21;99565.34;;;6.46;100.00
43770;BME280;6597;52.218;9.882;2024-03-02T05:03:48;99572.06;;;6.53;100.00
43770;BME280;6597;52.218;9.882;2024-03-02T05:06:15;99576.31;;;6.56;100.00
43770;BME280;6597;52.218;9.882;2024-03-02T05:08:41;99579.75;;;6.57;100.00
43770;BME280;6597;52.218;9.882;2024-03-02T05:11:10;99573.03;;;6.51;100.00
43770;BME280;6597;52.218;9.882;2024-03-02T05:13:55;99574.06;;;6.45;100.00
43770;BME280;6597;52.218;9.882;2024-03-02T05:16:22;99584.78;;;6.38;100.00
43770;BME280;6597;52.218;9.882;2024-03-02T05:18:48;99579.88;;;6.30;100.00
43770;BME280;6597;52.218;9.882;2024-03-02T05:21:15;99574.94;;;6.22;100.00
43770;BME280;6597;52.218;9.882;2024-03-02T05:23:41;99572.53;;;6.16;100.00
43770;BME280;6597;52.218;9.882;2024-03-02T05:26:08;99582.28;;;6.11;100.00
43770;BME280;6597;52.218;9.882;2024-03-02T05:28:36;99584.13;;;6.08;100.00
43770;BME280;6597;52.218;9.882;2024-03-02T05:31:04;99579.88;;;6.05;100.00
43770;BME280;6597;52.218;9.882;2024-03-02T05:33:31;99578.94;;;6.08;100.00
43770;BME280;6597;52.218;9.882;2024-03-02T05:35:58;99574.69;;;6.05;100.00
43770;BME280;6597;52.218;9.882;2024-03-02T05:38:25;99574.44;;;6.11;100.00
43770;BME280;6597;52.218;9.882;2024-03-02T05:40:51;99571.69;;;6.16;100.00
43770;BME280;6597;52.218;9.882;2024-03-02T05:43:18;99572.22;;;6.26;100.00
43770;BME280;6597;52.218;9.882;2024-03-02T05:45:45;99578.97;;;6.31;100.00
43770;BME280;6597;52.218;9.882;2024-03-02T05:48:13;99563.88;;;6.39;100.00
43770;BME280;6597;52.218;9.882;2024-03-02T05:50:40;99557.88;;;6.37;100.00
43770;BME280;6597;52.218;9.882;2024-03-02T05:53:06;99575.91;;;6.43;100.00
43770;BME280;6597;52.218;9.882;2024-03-02T05:55:33;99575.91;;;6.43;100.00
43770;BME280;6597;52.218;9.882;2024-03-02T05:57:59;99580.25;;;6.43;100.00
43770;BME280;6597;52.218;9.882;2024-03-02T06:00:36;99580.09;;;6.47;100.00
43770;BME280;6597;52.218;9.882;2024-03-02T06:03:04;99580.09;;;6.47;100.00
43770;BME280;6597;52.218;9.882;2024-03-02T06:05:32;99587.91;;;6.47;100.00
43770;BME280;6597;52.218;9.882;2024-03-02T06:07:59;99597.28;;;6.53;100.00
43770;BME280;6597;52.218;9.882;2024-03-02T06:10:25;99585.03;;;6.55;100.00
43770;BME280;6597;52.218;9.882;2024-03-02T06:12:52;99588.50;;;6.55;100.00
43770;BME280;6597;52.218;9.882;2024-03-02T06:15:18;99590.06;;;6.60;100.00
43770;BME280;6597;52.218;9.882;2024-03-02T06:17:44;99601.41;;;6.59;100.00
43770;BME280;6597;52.218;9.882;2024-03-02T06:20:11;99598.63;;;6.63;100.00
43770;BME280;6597;52.218;9.882;2024-03-02T06:22:38;99592.63;;;6.61;100.00
43770;BME280;6597;52.218;9.882;2024-03-02T06:25:05;99591.78;;;6.61;100.00
43770;BME280;6597;52.218;9.882;2024-03-02T06:27:32;99605.78;;;6.58;100.00
43770;BME280;6597;52.218;9.882;2024-03-02T06:29:59;99616.81;;;6.65;100.00
43770;BME280;6597;52.218;9.882;2024-03-02T06:32:25;99600.94;;;6.71;100.00
43770;BME280;6597;52.218;9.882;2024-03-02T06:34:52;99604.22;;;6.76;100.00
43770;BME280;6597;52.218;9.882;2024-03-02T06:37:19;99615.38;;;6.79;100.00
43770;BME280;6597;52.218;9.882;2024-03-02T06:39:46;99621.25;;;6.86;100.00
43770;BME280;6597;52.218;9.882;2024-03-02T06:42:13;99617.50;;;6.93;100.00
43770;BME280;6597;52.218;9.882;2024-03-02T06:44:39;99616.41;;;6.99;100.00
43770;BME280;6597;52.218;9.882;2024-03-02T06:47:06;99630.78;;;7.09;100.00
43770;BME280;6597;52.218;9.882;2024-03-02T06:49:32;99621.78;;;7.17;100.00
43770;BME280;6597;52.218;9.882;2024-03-02T06:52:00;99625.97;;;7.22;100.00
43770;BME280;6597;52.218;9.882;2024-03-02T06:54:27;99622.25;;;7.27;99.99
43770;BME280;6597;52.218;9.882;2024-03-02T06:56:54;99610.84;;;7.30;100.00
43770;BME280;6597;52.218;9.882;2024-03-02T06:59:21;99613.13;;;7.37;99.20
43770;BME280;6597;52.218;9.882;2024-03-02T07:01:48;99609.34;;;7.44;98.98
43770;BME280;6597;52.218;9.882;2024-03-02T07:04:14;99616.91;;;7.52;98.77
43770;BME280;6597;52.218;9.882;2024-03-02T07:06:41;99609.78;;;7.56;98.10
43770;BME280;6597;52.218;9.882;2024-03-02T07:09:07;99617.31;;;7.63;97.90
43770;BME280;6597;52.218;9.882;2024-03-02T07:11:36;99618.81;;;7.69;98.00
43770;BME280;6597;52.218;9.882;2024-03-02T07:14:04;99621.94;;;7.77;97.11
43770;BME280;6597;52.218;9.882;2024-03-02T07:16:30;99627.72;;;7.85;96.83
43770;BME280;6597;52.218;9.882;2024-03-02T07:18:58;99622.09;;;7.94;96.57
43770;BME280;6597;52.218;9.882;2024-03-02T07:21:27;99627.72;;;8.05;96.38
43770;BME280;6597;52.218;9.882;2024-03-02T07:23:54;99629.63;;;8.22;95.92
43770;BME280;6597;52.218;9.882;2024-03-02T07:26:20;99627.72;;;8.46;94.99
43770;BME280;6597;52.218;9.882;2024-03-02T07:28:48;99630.16;;;8.69;93.70
43770;BME280;6597;52.218;9.882;2024-03-02T07:31:16;99633.50;;;8.92;92.20
43770;BME280;6597;52.218;9.882;2024-03-02T07:33:44;99632.63;;;9.10;91.15
43770;BME280;6597;52.218;9.882;2024-03-02T07:36:11;99633.91;;;9.20;89.34
43770;BME280;6597;52.218;9.882;2024-03-02T07:38:38;99636.22;;;9.45;87.96
43770;BME280;6597;52.218;9.882;2024-03-02T07:41:05;99640.72;;;9.78;86.10
43770;BME280;6597;52.218;9.882;2024-03-02T07:43:32;99646.47;;;10.20;85.41
43770;BME280;6597;52.218;9.882;2024-03-02T07:45:59;99642.34;;;10.49;81.79
43770;BME280;6597;52.218;9.882;2024-03-02T07:48:27;99650.16;;;10.67;80.97
43770;BME280;6597;52.218;9.882;2024-03-02T07:50:53;99656.53;;;10.78;79.56
43770;BME280;6597;52.218;9.882;2024-03-02T07:53:20;99650.63;;;10.90;78.18
43770;BME280;6597;52.218;9.882;2024-03-02T07:55:46;99656.81;;;10.89;76.64
43770;BME280;6597;52.218;9.882;2024-03-02T07:58:13;99657.81;;;11.03;76.89
43770;BME280;6597;52.218;9.882;2024-03-02T08:00:40;99652.56;;;11.03;76.72
43770;BME280;6597;52.218;9.882;2024-03-02T08:03:06;99668.06;;;10.91;76.19
43770;BME280;6597;52.218;9.882;2024-03-02T08:05:38;99671.69;;;10.73;75.83
43770;BME280;6597;52.218;9.882;2024-03-02T08:08:05;99672.84;;;10.68;75.77
43770;BME280;6597;52.218;9.882;2024-03-02T08:10:31;99667.56;;;10.52;76.34
43770;BME280;6597;52.218;9.882;2024-03-02T08:12:59;99668.50;;;10.51;76.46
43770;BME280;6597;52.218;9.882;2024-03-02T08:15:25;99674.19;;;10.59;76.38
43770;BME280;6597;52.218;9.882;2024-03-02T08:17:52;99670.47;;;10.63;75.75
43770;BME280;6597;52.218;9.882;2024-03-02T08:20:18;99664.09;;;10.84;75.61
43770;BME280;6597;52.218;9.882;2024-03-02T08:22:46;99661.56;;;10.99;75.10
43770;BME280;6597;52.218;9.882;2024-03-02T08:25:13;99668.88;;;11.09;74.19
43770;BME280;6597;52.218;9.882;2024-03-02T08:27:41;99672.44;;;11.24;74.51
43770;BME280;6597;52.218;9.882;2024-03-02T08:30:08;99663.44;;;11.44;74.17
43770;BME280;6597;52.218;9.882;2024-03-02T08:32:36;99664.75;;;11.67;72.02
43770;BME280;6597;52.218;9.882;2024-03-02T08:35:03;99663.41;;;11.91;71.08
43770;BME280;6597;52.218;9.882;2024-03-02T08:37:30;99679.16;;;12.07;70.29
43770;BME280;6597;52.218;9.882;2024-03-02T08:39:58;99668.63;;;12.07;70.17
43770;BME280;6597;52.218;9.882;2024-03-02T08:42:25;99669.28;;;12.10;70.30
43770;BME280;6597;52.218;9.882;2024-03-02T08:44:52;99671.19;;;12.23;69.84
43770;BME280;6597;52.218;9.882;2024-03-02T08:47:18;99665.28;;;12.33;69.57
43770;BME280;6597;52.218;9.882;2024-03-02T08:49:45;99669.47;;;12.66;68.77
43770;BME280;6597;52.218;9.882;2024-03-02T08:52:11;99671.53;;;12.89;66.72
43770;BME280;6597;52.218;9.882;2024-03-02T08:54:38;99669.75;;;12.90;65.64
43770;BME280;6597;52.218;9.882;2024-03-02T08:57:06;99680.31;;;13.04;65.22
43770;BME280;6597;52.218;9.882;2024-03-02T08:59:33;99681.31;;;12.87;65.40
43770;BME280;6597;52.218;9.882;2024-03-02T09:02:00;99677.63;;;12.61;65.55
43770;BME280;6597;52.218;9.882;2024-03-02T09:04:26;99684.53;;;12.78;66.06
43770;BME280;6597;52.218;9.882;2024-03-02T09:06:53;99682.34;;;12.99;65.65
43770;BME280;6597;52.218;9.882;2024-03-02T09:09:20;99678.78;;;13.14;64.34
43770;BME280;6597;52.218;9.882;2024-03-02T09:11:47;99689.06;;;13.04;64.71
43770;BME280;6597;52.218;9.882;2024-03-02T09:14:15;99694.13;;;12.79;64.59
43770;BME280;6597;52.218;9.882;2024-03-02T09:16:42;99685.63;;;12.60;64.54
43770;BME280;6597;52.218;9.882;2024-03-02T09:19:08;99692.88;;;12.56;65.73
43770;BME280;6597;52.218;9.882;2024-03-02T09:21:35;99689.44;;;12.70;64.79
43770;BME280;6597;52.218;9.882;2024-03-02T09:24:02;99691.03;;;12.72;64.96
43770;BME280;6597;52.218;9.882;2024-03-02T09:26:29;99688.28;;;12.74;64.44
43770;BME280;6597;52.218;9.882;2024-03-02T09:28:55;99683.13;;;12.72;64.78
43770;BME280;6597;52.218;9.882;2024-03-02T09:31:23;99688.00;;;12.78;64.35
43770;BME280;6597;52.218;9.882;2024-03-02T09:33:49;99685.81;;;12.99;64.14
43770;BME280;6597;52.218;9.882;2024-03-02T09:36:17;99685.56;;;13.18;64.12
43770;BME280;6597;52.218;9.882;2024-03-02T09:38:44;99682.75;;;13.07;61.46
43770;BME280;6597;52.218;9.882;2024-03-02T09:41:10;99690.63;;;12.93;62.35
43770;BME280;6597;52.218;9.882;2024-03-02T09:43:37;99689.53;;;12.68;62.65
43770;BME280;6597;52.218;9.882;2024-03-02T09:46:04;99696.84;;;12.77;63.30
43770;BME280;6597;52.218;9.882;2024-03-02T09:48:33;99693.66;;;12.87;62.29
43770;BME280;6597;52.218;9.882;2024-03-02T09:51:00;99702.59;;;12.84;62.59
43770;BME280;6597;52.218;9.882;2024-03-02T09:53:29;99698.53;;;12.78;63.05
43770;BME280;6597;52.218;9.882;2024-03-02T09:55:58;99695.78;;;12.66;62.70
43770;BME280;6597;52.218;9.882;2024-03-02T09:58:25;99693.91;;;12.54;63.38
43770;BME280;6597;52.218;9.882;2024-03-02T10:00:51;99701.31;;;12.47;63.22
43770;BME280;6597;52.218;9.882;2024-03-02T10:03:18;99701.78;;;12.39;63.51
43770;BME280;6597;52.218;9.882;2024-03-02T10:05:47;99698.00;;;12.29;63.65
43770;BME280;6597;52.218;9.882;2024-03-02T10:08:14;99697.63;;;12.35;64.15
43770;BME280;6597;52.218;9.882;2024-03-02T10:10:41;99694.66;;;12.41;64.85
43770;BME280;6597;52.218;9.882;2024-03-02T10:13:09;99697.94;;;12.45;64.09
43770;BME280;6597;52.218;9.882;2024-03-02T10:15:38;99699.16;;;12.39;62.33
43770;BME280;6597;52.218;9.882;2024-03-02T10:18:08;99706.31;;;12.37;62.67
43770;BME280;6597;52.218;9.882;2024-03-02T10:20:37;99695.59;;;12.55;63.04
43770;BME280;6597;52.218;9.882;2024-03-02T10:23:12;99704.34;;;12.55;61.72
43770;BME280;6597;52.218;9.882;2024-03-02T10:25:39;99704.63;;;12.51;61.87
43770;BME280;6597;52.218;9.882;2024-03-02T10:28:05;99703.69;;;12.52;61.95
43770;BME280;6597;52.218;9.882;2024-03-02T10:30:32;99692.50;;;12.62;61.28
43770;BME280;6597;52.218;9.882;2024-03-02T10:33:00;99696.28;;;12.87;62.18
43770;BME280;6597;52.218;9.882;2024-03-02T10:35:26;99703.63;;;13.10;60.61
43770;BME280;6597;52.218;9.882;2024-03-02T10:37:53;99706.72;;;13.17;59.86
43770;BME280;6597;52.218;9.882;2024-03-02T10:40:22;99705.13;;;13.14;58.66
43770;BME280;6597;52.218;9.882;2024-03-02T10:42:50;99704.38;;;13.26;58.03
43770;BME280;6597;52.218;9.882;2024-03-02T10:45:19;99701.84;;;13.25;57.89
43770;BME280;6597;52.218;9.882;2024-03-02T10:47:46;99700.59;;;13.45;57.93
43770;BME280;6597;52.218;9.882;2024-03-02T10:50:13;99702.63;;;13.68;57.03
43770;BME280;6597;52.218;9.882;2024-03-02T10:52:40;99688.63;;;13.80;56.75
43770;BME280;6597;52.218;9.882;2024-03-02T10:55:08;99691.75;;;13.99;56.25
43770;BME280;6597;52.218;9.882;2024-03-02T10:57:41;99701.53;;;14.37;56.07
43770;BME280;6597;52.218;9.882;2024-03-02T11:00:12;99699.25;;;14.58;55.25
43770;BME280;6597;52.218;9.882;2024-03-02T11:02:42;99705.94;;;14.63;53.74
43770;BME280;6597;52.218;9.882;2024-03-02T11:05:12;99710.81;;;14.70;54.41
43770;BME280;6597;52.218;9.882;2024-03-02T11:07:44;99704.47;;;14.72;54.04
43770;BME280;6597;52.218;9.882;2024-03-02T11:10:12;99708.25;;;14.68;53.15
43770;BME280;6597;52.218;9.882;2024-03-02T11:12:48;99714.06;;;14.73;53.01
43770;BME280;6597;52.218;9.882;2024-03-02T11:15:18;99714.28;;;14.70;53.43
43770;BME280;6597;52.218;9.882;2024-03-02T11:17:46;99709.50;;;14.88;53.03
43770;BME280;6597;52.218;9.882;2024-03-02T11:20:14;99708.44;;;14.90;52.34
43770;BME280;6597;52.218;9.882;2024-03-02T11:22:42;99703.81;;;14.69;52.25
43770;BME280;6597;52.218;9.882;2024-03-02T11:25:22;99713.22;;;14.73;53.42
43770;BME280;6597;52.218;9.882;2024-03-02T11:28:06;99711.53;;;14.97;52.65
43770;BME280;6597;52.218;9.882;2024-03-02T11:30:50;99713.16;;;15.23;52.86
43770;BME280;6597;52.218;9.882;2024-03-02T11:33:26;99704.50;;;15.34;51.88
43770;BME280;6597;52.218;9.882;2024-03-02T11:35:55;99703.09;;;15.41;51.16
43770;BME280;6597;52.218;9.882;2024-03-02T11:38:22;99696.06;;;15.66;51.97
43770;BME280;6597;52.218;9.882;2024-03-02T11:40:50;99703.00;;;16.03;50.44
43770;BME280;6597;52.218;9.882;2024-03-02T11:43:19;99705.50;;;15.94;50.04
43770;BME280;6597;52.218;9.882;2024-03-02T11:45:45;99705.38;;;15.71;50.79
43770;BME280;6597;52.218;9.882;2024-03-02T11:48:14;99704.41;;;15.23;50.52
43770;BME280;6597;52.218;9.882;2024-03-02T11:50:42;99706.75;;;14.89;51.52
43770;BME280;6597;52.218;9.882;2024-03-02T11:53:10;99702.94;;;14.55;51.99
43770;BME280;6597;52.218;9.882;2024-03-02T11:55:38;99698.38;;;14.32;52.84
43770;BME280;6597;52.218;9.882;2024-03-02T11:58:06;99693.47;;;14.26;53.74
43770;BME280;6597;52.218;9.882;2024-03-02T12:00:33;99691.19;;;14.34;54.13
43770;BME280;6597;52.218;9.882;2024-03-02T12:03:01;99687.66;;;14.21;53.84
43770;BME280;6597;52.218;9.882;2024-03-02T12:05:28;99686.44;;;14.39;54.35
43770;BME280;6597;52.218;9.882;2024-03-02T12:07:56;99680.28;;;14.66;54.47
43770;BME280;6597;52.218;9.882;2024-03-02T12:10:23;99656.91;;;14.59;53.75
43770;BME280;6597;52.218;9.882;2024-03-02T12:12:55;99681.00;;;14.80;53.01
43770;BME280;6597;52.218;9.882;2024-03-02T12:15:23;99678.56;;;14.77;52.92
43770;BME280;6597;52.218;9.882;2024-03-02T12:17:54;99672.53;;;14.88;52.98
43770;BME280;6597;52.218;9.882;2024-03-02T12:20:21;99667.56;;;14.96;51.83
43770;BME280;6597;52.218;9.882;2024-03-02T12:22:49;99664.63;;;15.24;52.22
43770;BME280;6597;52.218;9.882;2024-03-02T12:25:17;99662.81;;;15.38;50.55
43770;BME280;6597;52.218;9.882;2024-03-02T12:27:44;99656.63;;;15.50;50.52
43770;BME280;6597;52.218;9.882;2024-03-02T12:30:12;99649.47;;;15.76;50.70
43770;BME280;6597;52.218;9.882;2024-03-02T12:32:40;99643.47;;;16.20;49.79
43770;BME280;6597;52.218;9.882;2024-03-02T12:35:09;99651.13;;;16.47;48.98
43770;BME280;6597;52.218;9.882;2024-03-02T12:37:43;99653.00;;;17.02;48.24
43770;BME280;6597;52.218;9.882;2024-03-02T12:40:10;99645.00;;;17.36;47.43
43770;BME280;6597;52.218;9.882;2024-03-02T12:42:37;99639.69;;;17.36;46.55
43770;BME280;6597;52.218;9.882;2024-03-02T12:45:05;99643.47;;;17.65;46.18
43770;BME280;6597;52.218;9.882;2024-03-02T12:47:33;99628.25;;;17.79;45.50
43770;BME280;6597;52.218;9.882;2024-03-02T12:49:59;99639.13;;;17.64;45.65
43770;BME280;6597;52.218;9.882;2024-03-02T12:52:27;99645.56;;;17.51;45.28
43770;BME280;6597;52.218;9.882;2024-03-02T12:54:54;99632.28;;;17.51;45.94
43770;BME280;6597;52.218;9.882;2024-03-02T12:57:25;99639.19;;;17.85;45.25
43770;BME280;6597;52.218;9.882;2024-03-02T12:59:52;99634.53;;;17.78;45.66
43770;BME280;6597;52.218;9.882;2024-03-02T13:02:18;99632.16;;;17.95;45.63
43770;BME280;6597;52.218;9.882;2024-03-02T13:04:52;99630.13;;;17.88;45.58
43770;BME280;6597;52.218;9.882;2024-03-02T13:07:19;99627.00;;;17.94;45.06
43770;BME280;6597;52.218;9.882;2024-03-02T13:09:48;99625.00;;;17.75;45.07
43770;BME280;6597;52.218;9.882;2024-03-02T13:12:15;99616.91;;;17.77;44.55
43770;BME280;6597;52.218;9.882;2024-03-02T13:14:41;99624.16;;;17.75;44.56
43770;BME280;6597;52.218;9.882;2024-03-02T13:17:08;99621.59;;;18.05;44.05